Flight Track Log - Related Links

Times and Time Zones

All times are in EST time to prevent confusion due to time zone crossing. See the EIA5106 flight status page for this flight to view local times or setup timezone preferences in your user account.


Time Position Orientation Groundspeed Altitude Reporting Facility
EST Latitude Longitude Course Direction KTS MPH feet Rate Location/Type
Tue 09:40:46 AM 47.9244 -122.2180 313° West 35,000  Level Seattle Center
Tue 09:41:46 AM 47.9325 -122.2310 105° East 471 542 35,000  Level Seattle Center
Tue 09:42:46 AM 47.9081 -122.0960 261° West 351 404 35,000 -16,650 Level Seattle Center
Tue 09:43:46 AM 47.8878 -122.2810 205° Southwest 68 78 1,700 -26,000 Descending Seattle Center
Tue 09:44:01 AM 47.8750 -122.2900 145° Southeast 156 180 2,500 2,200 Climbing Seattle Center
Tue 09:44:46 AM 47.8467 -122.2610 139° Southeast 181 208 3,900 1,371 Climbing Seattle Center
Tue 09:45:46 AM 47.8019 -122.2030 143° Southeast 246 283 4,900 550 Climbing Seattle Center
Tue 09:46:46 AM 47.7450 -122.1390 141° Southeast 271 312 5,000  Climbing Seattle Center
Tue 09:47:46 AM 47.6881 -122.0710 142° Southeast 271 312 4,900 1,250 Descending Seattle Center
Tue 09:48:46 AM 47.6311 -122.0040 139° Southeast 271 312 7,500 3,100 Climbing Seattle Center
Tue 09:49:46 AM 47.5722 -121.9280 136° Southeast 271 312 11,100 3,100 Climbing Seattle Center
Tue 09:50:46 AM 47.5072 -121.8340 134° Southeast 296 341 13,700 2,800 Climbing Seattle Center
Tue 09:51:46 AM 47.4383 -121.7270 131° Southeast 330 380 16,700 2,650 Climbing Seattle Center
Tue 09:52:46 AM 47.3675 -121.6080 124° Southeast 362 417 19,000 2,500 Climbing Seattle Center
Tue 09:53:46 AM 47.3008 -121.4650 114° Southeast 395 455 21,700 2,650 Climbing Seattle Center
Tue 09:54:46 AM 47.2511 -121.3010 115° Southeast 422 486 24,300 2,650 Climbing Seattle Center
Tue 09:55:46 AM 47.2050 -121.1560 117° Southeast 434 499 27,000 2,400 Climbing Seattle Center
Tue 09:56:46 AM 47.1506 -120.9970 117° Southeast 434 499 29,100 1,900 Climbing Seattle Center
Tue 09:57:46 AM 47.0878 -120.8150 116° Southeast 434 499 30,800 1,800 Climbing Seattle Center
Tue 09:58:46 AM 47.0328 -120.6500 116° Southeast 439 505 32,700 1,550 Climbing Seattle Center
Tue 09:59:46 AM 46.9797 -120.4880 117° Southeast 439 505 33,900 1,150 Climbing Seattle Center
Tue 10:00:46 AM 46.9225 -120.3230 116° Southeast 451 519 35,000 600 Climbing Seattle Center
Tue 10:01:46 AM 46.8669 -120.1560 117° Southeast 457 526 35,100 50 Climbing Seattle Center
Tue 10:02:46 AM 46.8047 -119.9800 117° Southeast 462 532 35,100 -50 Level Seattle Center
Tue 10:03:46 AM 46.7447 -119.8100 118° Southeast 467 537 35,000 100 Descending Seattle Center
Tue 10:04:46 AM 46.6842 -119.6410 116° Southeast 467 537 35,300 500 Climbing Seattle Center
Tue 10:05:46 AM 46.6256 -119.4660 118° Southeast 467 537 36,000 350 Climbing Seattle Center
Tue 10:06:46 AM 46.5625 -119.2910 118° Southeast 472 543 36,000  Level Seattle Center
Tue 10:07:46 AM 46.4992 -119.1170 117° Southeast 477 549 36,000  Level Seattle Center
Tue 10:08:46 AM 46.4397 -118.9460 118° Southeast 472 543 36,000  Level Seattle Center
Tue 10:09:46 AM 46.3758 -118.7720 118° Southeast 472 543 36,000  Level Seattle Center
Tue 10:10:46 AM 46.3139 -118.6020 117° Southeast 472 543 36,000  Level Seattle Center
Tue 10:11:46 AM 46.2517 -118.4290 114° Southeast 472 543 36,000  Level Seattle Center
Tue 10:12:46 AM 46.1953 -118.2480 113° Southeast 477 549 36,000  Level Seattle Center
Tue 10:13:46 AM 46.1428 -118.0690 114° Southeast 482 555 36,000  Level Seattle Center
Tue 10:14:46 AM 46.0881 -117.8920 113° Southeast 481 554 36,000  Level Seattle Center
Tue 10:15:46 AM 46.0328 -117.7080 113° Southeast 481 554 36,000  Level Seattle Center
Tue 10:16:46 AM 45.9794 -117.5310 114° Southeast 481 554 36,000  Level Seattle Center
Tue 10:17:46 AM 45.9239 -117.3540 114° Southeast 486 559 36,000  Level Seattle Center
Tue 10:18:46 AM 45.8678 -117.1740 113° Southeast 486 559 36,000  Level Seattle Center
Tue 10:19:46 AM 45.8136 -116.9950 115° Southeast 486 559 36,000  Level Seattle Center
Tue 10:20:46 AM 45.7572 -116.8200 115° Southeast 486 559 36,000  Level Seattle Center
Tue 10:21:46 AM 45.7006 -116.6440 113° Southeast 486 559 36,000 100 Level Seattle Center
Tue 10:22:46 AM 45.6475 -116.4660 114° Southeast 481 554 36,200 500 Climbing Seattle Center
Tue 10:23:46 AM 45.5903 -116.2850 120° Southeast 498 573 37,000 450 Climbing Seattle Center
Tue 10:24:46 AM 45.5292 -116.1320 130° Southeast 493 567 37,100 50 Climbing Seattle Center
Tue 10:25:46 AM 45.4344 -115.9690 129° Southeast 488 562 37,100  Level Seattle Center
Tue 10:26:46 AM 45.3478 -115.8160 120° Southeast 493 567 37,100  Level Seattle Center
Tue 10:27:46 AM 45.2794 -115.6490 113° Southeast 493 567 37,100  Level Seattle Center
Tue 10:28:58 AM 45.2142 -115.4340 116° Southeast 492 566 37,100  Level Salt Lake Center
Tue 10:29:58 AM 45.1544 -115.2580 116° Southeast 492 566 37,100 -50 Level Salt Lake Center
Tue 10:30:58 AM 45.0944 -115.0830 115° Southeast 497 572 37,000  Descending Salt Lake Center
Tue 10:31:58 AM 45.0422 -114.9240 116° Southeast 497 572 37,100 50 Climbing Salt Lake Center
Tue 10:32:58 AM 44.9817 -114.7490 115° Southeast 497 572 37,100  Level Salt Lake Center
Tue 10:33:58 AM 44.9175 -114.5540 116° Southeast 497 572 37,100  Level Salt Lake Center
Tue 10:34:58 AM 44.8583 -114.3810 117° Southeast 497 572 37,100 -50 Level Salt Lake Center
Tue 10:35:58 AM 44.8028 -114.2250 115° Southeast 492 566 37,000 -50 Descending Salt Lake Center
Tue 10:36:58 AM 44.7436 -114.0460 117° Southeast 492 566 37,000 50 Level Salt Lake Center
Tue 10:37:58 AM 44.6797 -113.8700 116° Southeast 502 578 37,100  Climbing Salt Lake Center
Tue 10:38:58 AM 44.6119 -113.6770 115° Southeast 502 578 37,000  Descending Salt Lake Center
Tue 10:39:58 AM 44.5536 -113.5020 118° Southeast 502 578 37,100 50 Climbing Salt Lake Center
Tue 10:40:58 AM 44.4889 -113.3310 116° Southeast 502 578 37,100  Level Salt Lake Center
Tue 10:41:58 AM 44.4342 -113.1740 116° Southeast 497 572 37,100 -50 Level Salt Lake Center
Tue 10:42:58 AM 44.3731 -112.9970 117° Southeast 502 578 37,000 -50 Descending Salt Lake Center
Tue 10:43:58 AM 44.3019 -112.8000 117° Southeast 497 572 37,000 50 Level Salt Lake Center
Tue 10:44:58 AM 44.2403 -112.6330 118° Southeast 497 572 37,100 50 Climbing Salt Lake Center
Tue 10:45:58 AM 44.1822 -112.4780 117° Southeast 497 572 37,100  Level Salt Lake Center
Tue 10:46:58 AM 44.1161 -112.2960 117° Southeast 502 578 37,100  Level Salt Lake Center
Tue 10:47:58 AM 44.0458 -112.1040 118° Southeast 502 578 37,100  Level Salt Lake Center
Tue 10:48:58 AM 43.9811 -111.9350 117° Southeast 502 578 37,100  Level Salt Lake Center
Tue 10:49:58 AM 43.9222 -111.7760 117° Southeast 502 578 37,100  Level Salt Lake Center
Tue 10:50:58 AM 43.8511 -111.5840 118° Southeast 502 578 37,100 -50 Level Salt Lake Center
Tue 10:51:58 AM 43.7856 -111.4110 119° Southeast 502 578 37,000 -50 Descending Salt Lake Center
Tue 10:52:58 AM 43.7156 -111.2380 117° Southeast 509 586 37,000 50 Level Salt Lake Center
Tue 10:53:58 AM 43.6558 -111.0790 118° Southeast 509 586 37,100 50 Climbing Salt Lake Center
Tue 10:54:58 AM 43.5814 -110.8870 117° Southeast 516 594 37,100 -50 Level Salt Lake Center
Tue 10:55:58 AM 43.5147 -110.7090 120° Southeast 521 600 37,000 -50 Descending Salt Lake Center
Tue 10:56:58 AM 43.4439 -110.5410 118° Southeast 511 588 37,000  Level Salt Lake Center
Tue 10:57:58 AM 43.3747 -110.3640 116° Southeast 516 594 37,000  Level Salt Lake Center
Tue 10:58:58 AM 43.3117 -110.1840 120° Southeast 521 600 37,000 50 Level Salt Lake Center
Tue 10:59:58 AM 43.2378 -110.0080 121° Southeast 522 601 37,100  Climbing Salt Lake Center
Tue 11:00:58 AM 43.1658 -109.8410 118° Southeast 522 601 37,000  Descending Salt Lake Center
Tue 11:01:58 AM 43.1064 -109.6910 119° Southeast 509 586 37,100 50 Climbing Salt Lake Center
Tue 11:02:58 AM 43.0294 -109.5050 117° Southeast 500 575 37,100  Level Salt Lake Center
Tue 11:03:58 AM 42.9694 -109.3470 120° Southeast 500 575 37,100 -50 Level Salt Lake Center
Tue 11:04:58 AM 42.8942 -109.1670 120° Southeast 500 575 37,000 -50 Descending Salt Lake Center
Tue 11:05:58 AM 42.8253 -109.0020 120° Southeast 500 575 37,000  Level Salt Lake Center
Tue 11:06:58 AM 42.7561 -108.8370 119° Southeast 500 575 37,000  Level Salt Lake Center
Tue 11:07:58 AM 42.6953 -108.6860 120° Southeast 495 570 37,000  Level Salt Lake Center
Tue 11:08:58 AM 42.6211 -108.5110 120° Southeast 495 570 37,000  Level Salt Lake Center
Tue 11:09:58 AM 42.5511 -108.3440 120° Southeast 495 570 37,000  Level Salt Lake Center
Tue 11:10:58 AM 42.4831 -108.1830 122° Southeast 495 570 37,000  Level Salt Lake Center
Tue 11:11:58 AM 42.4161 -108.0370 120° Southeast 502 578 37,000 50 Level Denver Center
Tue 11:12:58 AM 42.3392 -107.8580 120° Southeast 502 578 37,100  Climbing Denver Center
Tue 11:13:58 AM 42.2700 -107.6990 120° Southeast 497 572 37,000 -50 Descending Denver Center
Tue 11:14:58 AM 42.2008 -107.5360 120° Southeast 497 572 37,000  Level Denver Center
Tue 11:15:58 AM 42.1394 -107.3920 121° Southeast 491 565 37,000  Level Denver Center
Tue 11:16:58 AM 42.0617 -107.2170 121° Southeast 496 571 37,000 50 Level Denver Center
Tue 11:17:58 AM 41.9897 -107.0540 122° Southeast 496 571 37,100  Climbing Denver Center
Tue 11:18:58 AM 41.9153 -106.8920 121° Southeast 496 571 37,000  Descending Denver Center
Tue 11:19:58 AM 41.8511 -106.7470 122° Southeast 501 577 37,100  Climbing Denver Center
Tue 11:20:58 AM 41.7681 -106.5710 120° Southeast 501 577 37,000 -50 Descending Denver Center
Tue 11:21:58 AM 41.7078 -106.4320 122° Southeast 491 565 37,000  Level Denver Center
Tue 11:22:58 AM 41.6325 -106.2710 121° Southeast 496 571 37,000  Level Denver Center
Tue 11:23:58 AM 41.5550 -106.0960 122° Southeast 496 571 37,000 50 Level Denver Center
Tue 11:24:58 AM 41.4814 -105.9360 123° Southeast 496 571 37,100  Climbing Denver Center
Tue 11:25:58 AM 41.4139 -105.7950 122° Southeast 496 571 37,000 -50 Descending Denver Center
Tue 11:26:58 AM 41.3336 -105.6220 122° Southeast 496 571 37,000  Level Denver Center
Tue 11:27:58 AM 41.2594 -105.4630 122° Southeast 496 571 37,000  Level Denver Center
Tue 11:28:58 AM 41.1869 -105.3090 122° Southeast 496 571 37,000  Level Denver Center
Tue 11:29:58 AM 41.1208 -105.1670 122° Southeast 496 571 37,000 50 Level Denver Center
Tue 11:30:58 AM 41.0375 -104.9920 121° Southeast 496 571 37,100  Climbing Denver Center
Tue 11:31:58 AM 40.9750 -104.8530 122° Southeast 496 571 37,000 -50 Descending Denver Center
Tue 11:32:58 AM 40.8933 -104.6820 122° Southeast 496 571 37,000  Level Denver Center
Tue 11:33:58 AM 40.8200 -104.5280 123° Southeast 491 565 37,000 50 Level Denver Center
Tue 11:34:58 AM 40.7444 -104.3740 122° Southeast 491 565 37,100  Climbing Denver Center
Tue 11:35:58 AM 40.6706 -104.2200 122° Southeast 496 571 37,000 -50 Descending Denver Center
Tue 11:36:58 AM 40.5967 -104.0670 123° Southeast 491 565 37,000  Level Denver Center
Tue 11:37:58 AM 40.5225 -103.9160 123° Southeast 491 565 37,000  Level Denver Center
Tue 11:38:58 AM 40.4481 -103.7660 123° Southeast 491 565 37,000  Level Denver Center
Tue 11:39:58 AM 40.3800 -103.6270 123° Southeast 491 565 37,000  Level Denver Center
Tue 11:40:58 AM 40.3056 -103.4780 123° Southeast 491 565 37,000  Level Denver Center
Tue 11:41:58 AM 40.2306 -103.3290 123° Southeast 491 565 37,000  Level Denver Center
Tue 11:42:58 AM 40.1556 -103.1770 123° Southeast 491 565 37,000 50 Level Denver Center
Tue 11:43:58 AM 40.0778 -103.0210 123° Southeast 503 579 37,100  Climbing Denver Center
Tue 11:44:58 AM 39.9936 -102.8540 124° Southeast 511 588 37,000  Descending Denver Center
Tue 11:45:58 AM 39.9133 -102.6990 123° Southeast 516 594 37,100 -50 Climbing Denver Center
Tue 11:46:58 AM 39.8331 -102.5410 124° Southeast 517 595 36,900 -700 Descending Denver Center
Tue 11:47:58 AM 39.7569 -102.3920 125° Southeast 517 595 35,700 -900 Descending Denver Center
Tue 11:48:58 AM 39.6853 -102.2580 124° Southeast 506 582 35,100 -300 Descending Denver Center
Tue 11:49:58 AM 39.6067 -102.1070 124° Southeast 506 582 35,100  Level Denver Center
Tue 11:50:58 AM 39.5167 -101.9370 123° Southeast 513 590 35,100 -50 Level Denver Center
Tue 11:51:58 AM 39.4397 -101.7840 123° Southeast 519 597 35,000 -50 Descending Denver Center
Tue 11:52:58 AM 39.3692 -101.6460 116° Southeast 519 597 35,000 50 Level Denver Center
Tue 11:53:58 AM 39.3011 -101.4680 114° Southeast 511 588 35,100  Climbing Denver Center
Tue 11:54:58 AM 39.2436 -101.2980 115° Southeast 509 586 35,000 -59 Descending Denver Center
Tue 11:55:40 AM 39.2011 -101.1820 116° Southeast 516 594 35,000  Level Kansas City Center
Tue 11:56:40 AM 39.1447 -101.0350 116° Southeast 517 595 35,000  Level Kansas City Center
Tue 11:57:40 AM 39.0825 -100.8710 118° Southeast 506 582 35,000  Level Kansas City Center
Tue 11:58:40 AM 39.0122 -100.6990 117° Southeast 506 582 35,000  Level Kansas City Center
Tue 11:59:40 AM 38.9475 -100.5390 116° Southeast 501 577 35,000  Level Kansas City Center
Tue 12:00:40 PM 38.8922 -100.3960 115° Southeast 501 577 35,000  Level Kansas City Center
Tue 12:01:40 PM 38.8331 -100.2360 117° Southeast 501 577 35,000  Level Kansas City Center
Tue 12:02:40 PM 38.7642 -100.0610 117° Southeast 501 577 35,000  Level Kansas City Center
Tue 12:03:40 PM 38.7006 -99.9014 117° Southeast 501 577 35,000  Level Kansas City Center
Tue 12:04:40 PM 38.6350 -99.7397 116° Southeast 506 582 35,000  Level Kansas City Center
Tue 12:05:40 PM 38.5786 -99.5950 118° Southeast 509 586 35,000  Level Kansas City Center
Tue 12:06:40 PM 38.5086 -99.4256 117° Southeast 499 574 35,000 -150 Level Kansas City Center
Tue 12:07:40 PM 38.4442 -99.2647 117° Southeast 499 574 34,700 -1,200 Descending Kansas City Center
Tue 12:08:40 PM 38.3833 -99.1100 118° Southeast 499 574 32,600 -2,650 Descending Kansas City Center
Tue 12:09:40 PM 38.3203 -98.9578 119° Southeast 492 566 29,400 -2,900 Descending Kansas City Center
Tue 12:10:40 PM 38.2608 -98.8192 118° Southeast 473 544 26,800 -2,650 Descending Kansas City Center
Tue 12:11:40 PM 38.2031 -98.6839 119° Southeast 458 527 24,100 -2,600 Descending Kansas City Center
Tue 12:12:40 PM 38.1469 -98.5564 117° Southeast 437 503 21,600 -2,550 Descending Kansas City Center
Tue 12:13:40 PM 38.0969 -98.4297 120° Southeast 417 480 19,000 -2,690 Descending Kansas City Center
Tue 12:14:07 PM 38.0697 -98.3703 112° Southeast 405 466 17,700 -2,379 Descending Kansas City Center
Tue 12:14:38 PM 38.0508 -98.3114 119° Southeast 399 459 16,700 -2,323 Descending Kansas City Center
Tue 12:15:40 PM 37.9961 -98.1872 119° Southeast 394 453 14,100 -1,328 Descending Kansas City Center
Tue 12:16:40 PM 37.9456 -98.0717 144° Southeast 384 442 14,000 -50 Descending Kansas City Center
Tue 12:17:40 PM 37.8603 -97.9939 145° Southeast 367 422 14,000  Level Kansas City Center
Tue 12:18:40 PM 37.7747 -97.9189 145° Southeast 372 428 14,000  Level Kansas City Center
Tue 12:19:40 PM 37.6994 -97.8525 146° Southeast 372 428 14,000 -500 Level Kansas City Center
Tue 12:20:40 PM 37.6158 -97.7806 145° Southeast 372 428 13,000 -1,800 Descending Kansas City Center
Tue 12:21:40 PM 37.5364 -97.7117 149° Southeast 362 417 10,400 -2,175 Descending Kansas City Center
Tue 12:22:00 PM 37.5036 -97.6869 141° Southeast 330 380 10,100 -1,100 Descending Kansas City Center
Tue 12:22:40 PM 37.4692 -97.6514 149° Southeast 334 384 9,300 -1,701 Descending Kansas City Center
Tue 12:23:07 PM 37.4283 -97.6208 121° Southeast 294 338 8,200 -2,300 Descending Kansas City Center
Tue 12:23:40 PM 37.4106 -97.5836 110° East 303 349 7,000 -2,125 Descending Kansas City Center
Tue 12:23:55 PM 37.4028 -97.5569 101° East 277 319 6,500 -2,000 Descending Kansas City Center
Tue 12:24:40 PM 37.3939 -97.4967 98° East 255 293 5,000 -1,770 Descending Kansas City Center
Tue 12:24:56 PM 37.3906 -97.4678 97° East 254 292 4,700 -900 Descending Kansas City Center
Tue 12:25:40 PM 37.3856 -97.4178 79° East 241 277 4,100 -923 Descending Kansas City Center
Tue 12:26:40 PM 37.3953 -97.3556 32° Northeast 213 245 3,100 -550 Descending Kansas City Center
Tue 12:27:40 PM 37.4336 -97.3256 12° North 149 171 3,000 -50 Descending Kansas City Center
Tue 12:28:40 PM 37.4756 -97.3139 13° North 138 159 3,000 -124 Level Kansas City Center
Tue 12:30:05 PM 37.5406 -97.2956 14° North 159 183 2,700 -474 Descending Kansas City Center
Tue 12:31:12 PM 37.5847 -97.2814 14° North 147 169 1,800 -806 Descending Kansas City Center

Login

Don't have an account? Register now (free) for customized features, flight alerts, and more!